sensor_id;sensor_type;location;lat;lon;timestamp;temperature;humidity
23335;DHT22;11839;48.598;8.870;2023-02-26T00:00:25;1.80;99.90
23335;DHT22;11839;48.598;8.870;2023-02-26T00:02:52;1.80;99.90
23335;DHT22;11839;48.598;8.870;2023-02-26T00:05:18;1.70;99.90
23335;DHT22;11839;48.598;8.870;2023-02-26T00:07:45;1.70;99.90
23335;DHT22;11839;48.598;8.870;2023-02-26T00:10:13;1.60;99.90
23335;DHT22;11839;48.598;8.870;2023-02-26T00:12:42;1.50;99.90
23335;DHT22;11839;48.598;8.870;2023-02-26T00:15:10;1.60;99.90
23335;DHT22;11839;48.598;8.870;2023-02-26T00:17:43;1.80;99.90
23335;DHT22;11839;48.598;8.870;2023-02-26T00:20:11;1.90;99.90
23335;DHT22;11839;48.598;8.870;2023-02-26T00:22:40;1.90;99.90
23335;DHT22;11839;48.598;8.870;2023-02-26T00:25:07;1.80;99.90
23335;DHT22;11839;48.598;8.870;2023-02-26T00:27:36;1.60;99.90
23335;DHT22;11839;48.598;8.870;2023-02-26T00:30:05;1.60;99.90
23335;DHT22;11839;48.598;8.870;2023-02-26T00:32:33;1.50;99.90
23335;DHT22;11839;48.598;8.870;2023-02-26T00:35:01;1.50;99.90
23335;DHT22;11839;48.598;8.870;2023-02-26T00:37:38;1.60;99.90
23335;DHT22;11839;48.598;8.870;2023-02-26T00:40:17;1.70;99.90
23335;DHT22;11839;48.598;8.870;2023-02-26T00:42:48;1.50;99.90
23335;DHT22;11839;48.598;8.870;2023-02-26T00:45:16;1.30;99.90
23335;DHT22;11839;48.598;8.870;2023-02-26T00:47:48;1.30;99.90
23335;DHT22;11839;48.598;8.870;2023-02-26T00:50:19;1.20;99.90
23335;DHT22;11839;48.598;8.870;2023-02-26T00:52:56;1.20;99.90
23335;DHT22;11839;48.598;8.870;2023-02-26T00:55:25;1.20;99.90
23335;DHT22;11839;48.598;8.870;2023-02-26T00:57:53;1.50;99.90
23335;DHT22;11839;48.598;8.870;2023-02-26T01:00:20;1.60;99.90
23335;DHT22;11839;48.598;8.870;2023-02-26T01:02:48;1.50;99.90
23335;DHT22;11839;48.598;8.870;2023-02-26T01:05:15;1.20;99.90
23335;DHT22;11839;48.598;8.870;2023-02-26T01:07:46;1.30;99.90
23335;DHT22;11839;48.598;8.870;2023-02-26T01:10:19;1.30;99.90
23335;DHT22;11839;48.598;8.870;2023-02-26T01:12:47;1.20;99.90
23335;DHT22;11839;48.598;8.870;2023-02-26T01:15:16;1.20;99.90
23335;DHT22;11839;48.598;8.870;2023-02-26T01:17:47;1.50;99.90
23335;DHT22;11839;48.598;8.870;2023-02-26T01:20:19;1.50;99.90
23335;DHT22;11839;48.598;8.870;2023-02-26T01:22:51;1.50;99.90
23335;DHT22;11839;48.598;8.870;2023-02-26T01:25:23;1.50;99.90
23335;DHT22;11839;48.598;8.870;2023-02-26T01:27:52;1.40;99.90
23335;DHT22;11839;48.598;8.870;2023-02-26T01:30:24;1.40;99.90
23335;DHT22;11839;48.598;8.870;2023-02-26T01:32:57;1.20;99.90
23335;DHT22;11839;48.598;8.870;2023-02-26T01:35:40;1.30;99.90
23335;DHT22;11839;48.598;8.870;2023-02-26T01:38:16;1.20;99.90
23335;DHT22;11839;48.598;8.870;2023-02-26T01:41:23;1.00;99.90
23335;DHT22;11839;48.598;8.870;2023-02-26T01:44:03;1.20;99.90
23335;DHT22;11839;48.598;8.870;2023-02-26T01:46:37;1.10;99.90
23335;DHT22;11839;48.598;8.870;2023-02-26T01:49:13;0.80;99.90
23335;DHT22;11839;48.598;8.870;2023-02-26T01:51:44;0.80;99.90
23335;DHT22;11839;48.598;8.870;2023-02-26T01:54:13;1.00;99.90
23335;DHT22;11839;48.598;8.870;2023-02-26T01:56:41;0.90;99.90
23335;DHT22;11839;48.598;8.870;2023-02-26T01:59:10;1.00;99.90
23335;DHT22;11839;48.598;8.870;2023-02-26T02:01:41;1.00;99.90
23335;DHT22;11839;48.598;8.870;2023-02-26T02:04:12;1.10;99.90
23335;DHT22;11839;48.598;8.870;2023-02-26T02:06:40;0.90;99.90
23335;DHT22;11839;48.598;8.870;2023-02-26T02:09:07;0.90;99.90
23335;DHT22;11839;48.598;8.870;2023-02-26T02:11:37;0.80;99.90
23335;DHT22;11839;48.598;8.870;2023-02-26T02:14:11;0.80;99.90
23335;DHT22;11839;48.598;8.870;2023-02-26T02:16:47;0.80;99.90
23335;DHT22;11839;48.598;8.870;2023-02-26T02:19:52;0.80;99.90
23335;DHT22;11839;48.598;8.870;2023-02-26T02:22:39;0.80;99.90
23335;DHT22;11839;48.598;8.870;2023-02-26T02:25:32;0.80;99.90
23335;DHT22;11839;48.598;8.870;2023-02-26T02:28:05;0.80;99.90
23335;DHT22;11839;48.598;8.870;2023-02-26T02:30:59;0.80;99.90
23335;DHT22;11839;48.598;8.870;2023-02-26T02:33:30;0.70;99.90
23335;DHT22;11839;48.598;8.870;2023-02-26T02:36:01;0.80;99.90
23335;DHT22;11839;48.598;8.870;2023-02-26T02:38:33;0.80;99.90
23335;DHT22;11839;48.598;8.870;2023-02-26T02:41:07;0.80;99.90
23335;DHT22;11839;48.598;8.870;2023-02-26T02:43:36;0.70;99.90
23335;DHT22;11839;48.598;8.870;2023-02-26T02:46:07;0.80;99.90
23335;DHT22;11839;48.598;8.870;2023-02-26T02:48:38;0.80;99.90
23335;DHT22;11839;48.598;8.870;2023-02-26T02:51:10;0.70;99.90
23335;DHT22;11839;48.598;8.870;2023-02-26T02:53:42;0.80;99.90
23335;DHT22;11839;48.598;8.870;2023-02-26T02:56:13;0.90;99.90
23335;DHT22;11839;48.598;8.870;2023-02-26T02:58:42;1.10;99.90
23335;DHT22;11839;48.598;8.870;2023-02-26T03:01:15;1.20;99.70
23335;DHT22;11839;48.598;8.870;2023-02-26T03:03:51;1.30;99.70
23335;DHT22;11839;48.598;8.870;2023-02-26T03:06:20;1.10;99.50
23335;DHT22;11839;48.598;8.870;2023-02-26T03:08:47;1.10;99.50
23335;DHT22;11839;48.598;8.870;2023-02-26T03:11:15;1.00;99.40
23335;DHT22;11839;48.598;8.870;2023-02-26T03:13:42;1.00;99.50
23335;DHT22;11839;48.598;8.870;2023-02-26T03:16:29;1.00;99.50
23335;DHT22;11839;48.598;8.870;2023-02-26T03:19:07;0.90;99.30
23335;DHT22;11839;48.598;8.870;2023-02-26T03:21:41;0.80;99.60
23335;DHT22;11839;48.598;8.870;2023-02-26T03:24:15;0.70;99.70
23335;DHT22;11839;48.598;8.870;2023-02-26T03:26:46;0.60;99.90
23335;DHT22;11839;48.598;8.870;2023-02-26T03:29:25;0.60;99.90
23335;DHT22;11839;48.598;8.870;2023-02-26T03:31:57;0.50;99.90
23335;DHT22;11839;48.598;8.870;2023-02-26T03:34:27;0.50;99.90
23335;DHT22;11839;48.598;8.870;2023-02-26T03:36:58;0.60;99.90
23335;DHT22;11839;48.598;8.870;2023-02-26T03:39:28;0.70;99.90
23335;DHT22;11839;48.598;8.870;2023-02-26T03:42:00;0.70;99.70
23335;DHT22;11839;48.598;8.870;2023-02-26T03:44:32;0.90;99.80
23335;DHT22;11839;48.598;8.870;2023-02-26T03:47:05;0.60;99.90
23335;DHT22;11839;48.598;8.870;2023-02-26T03:49:47;0.90;99.70
23335;DHT22;11839;48.598;8.870;2023-02-26T03:52:15;0.90;99.70
23335;DHT22;11839;48.598;8.870;2023-02-26T03:54:45;0.50;99.90
23335;DHT22;11839;48.598;8.870;2023-02-26T03:57:12;0.60;99.90
23335;DHT22;11839;48.598;8.870;2023-02-26T03:59:39;0.80;99.80
23335;DHT22;11839;48.598;8.870;2023-02-26T04:02:12;1.00;99.90
23335;DHT22;11839;48.598;8.870;2023-02-26T04:04:44;1.30;99.90
23335;DHT22;11839;48.598;8.870;2023-02-26T04:07:13;1.10;99.20
23335;DHT22;11839;48.598;8.870;2023-02-26T04:09:41;1.00;99.50
23335;DHT22;11839;48.598;8.870;2023-02-26T04:12:08;1.00;99.50
23335;DHT22;11839;48.598;8.870;2023-02-26T04:14:36;0.90;99.10
23335;DHT22;11839;48.598;8.870;2023-02-26T04:17:03;0.80;99.70
23335;DHT22;11839;48.598;8.870;2023-02-26T04:19:31;0.80;99.40
23335;DHT22;11839;48.598;8.870;2023-02-26T04:21:58;0.60;99.80
23335;DHT22;11839;48.598;8.870;2023-02-26T04:24:25;0.70;99.90
23335;DHT22;11839;48.598;8.870;2023-02-26T04:26:52;0.80;99.80
23335;DHT22;11839;48.598;8.870;2023-02-26T04:29:19;0.90;99.40
23335;DHT22;11839;48.598;8.870;2023-02-26T04:31:46;0.90;99.70
23335;DHT22;11839;48.598;8.870;2023-02-26T04:34:12;0.60;99.90
23335;DHT22;11839;48.598;8.870;2023-02-26T04:36:41;0.60;99.90
23335;DHT22;11839;48.598;8.870;2023-02-26T04:39:08;0.70;99.90
23335;DHT22;11839;48.598;8.870;2023-02-26T04:41:35;0.70;99.90
23335;DHT22;11839;48.598;8.870;2023-02-26T04:44:02;0.70;99.80
23335;DHT22;11839;48.598;8.870;2023-02-26T04:46:29;0.50;99.90
23335;DHT22;11839;48.598;8.870;2023-02-26T04:48:56;0.60;99.90
23335;DHT22;11839;48.598;8.870;2023-02-26T04:51:23;0.50;99.90
23335;DHT22;11839;48.598;8.870;2023-02-26T04:53:51;0.30;99.90
23335;DHT22;11839;48.598;8.870;2023-02-26T04:56:18;0.10;99.90
23335;DHT22;11839;48.598;8.870;2023-02-26T04:58:45;0.10;99.90
23335;DHT22;11839;48.598;8.870;2023-02-26T05:01:12;0.20;99.90
23335;DHT22;11839;48.598;8.870;2023-02-26T05:03:39;-0.10;99.90
23335;DHT22;11839;48.598;8.870;2023-02-26T05:06:06;-0.10;99.90
23335;DHT22;11839;48.598;8.870;2023-02-26T05:08:33;0.00;99.90
23335;DHT22;11839;48.598;8.870;2023-02-26T05:11:02;-0.20;99.90
23335;DHT22;11839;48.598;8.870;2023-02-26T05:13:28;0.00;99.90
23335;DHT22;11839;48.598;8.870;2023-02-26T05:15:55;0.00;99.90
23335;DHT22;11839;48.598;8.870;2023-02-26T05:18:22;0.10;99.90
23335;DHT22;11839;48.598;8.870;2023-02-26T05:20:51;0.20;99.90
23335;DHT22;11839;48.598;8.870;2023-02-26T05:23:18;0.10;99.90
23335;DHT22;11839;48.598;8.870;2023-02-26T05:25:45;0.00;99.90
23335;DHT22;11839;48.598;8.870;2023-02-26T05:28:13;0.10;99.90
23335;DHT22;11839;48.598;8.870;2023-02-26T05:30:40;0.30;99.90
23335;DHT22;11839;48.598;8.870;2023-02-26T05:33:07;0.30;99.90
23335;DHT22;11839;48.598;8.870;2023-02-26T05:35:34;0.60;99.90
23335;DHT22;11839;48.598;8.870;2023-02-26T05:38:01;0.60;99.90
23335;DHT22;11839;48.598;8.870;2023-02-26T05:40:27;0.50;99.90
23335;DHT22;11839;48.598;8.870;2023-02-26T05:42:54;0.80;99.90
23335;DHT22;11839;48.598;8.870;2023-02-26T05:45:22;0.80;99.80
23335;DHT22;11839;48.598;8.870;2023-02-26T05:47:49;0.70;99.90
23335;DHT22;11839;48.598;8.870;2023-02-26T05:50:16;0.50;99.80
23335;DHT22;11839;48.598;8.870;2023-02-26T05:52:43;0.10;99.90
23335;DHT22;11839;48.598;8.870;2023-02-26T05:55:11;0.20;99.90
23335;DHT22;11839;48.598;8.870;2023-02-26T05:57:38;0.30;99.90
23335;DHT22;11839;48.598;8.870;2023-02-26T06:00:06;0.10;99.90
23335;DHT22;11839;48.598;8.870;2023-02-26T06:02:35;0.20;99.90
23335;DHT22;11839;48.598;8.870;2023-02-26T06:05:02;0.20;99.90
23335;DHT22;11839;48.598;8.870;2023-02-26T06:07:29;0.20;99.90
23335;DHT22;11839;48.598;8.870;2023-02-26T06:09:56;0.30;99.90
23335;DHT22;11839;48.598;8.870;2023-02-26T06:12:23;0.20;99.90
23335;DHT22;11839;48.598;8.870;2023-02-26T06:14:50;0.30;99.90
23335;DHT22;11839;48.598;8.870;2023-02-26T06:17:16;0.10;99.90
23335;DHT22;11839;48.598;8.870;2023-02-26T06:19:44;0.10;99.90
23335;DHT22;11839;48.598;8.870;2023-02-26T06:22:11;-0.10;99.90
23335;DHT22;11839;48.598;8.870;2023-02-26T06:24:38;-0.20;99.90
23335;DHT22;11839;48.598;8.870;2023-02-26T06:27:05;-0.20;99.90
23335;DHT22;11839;48.598;8.870;2023-02-26T06:29:32;-0.40;99.90
23335;DHT22;11839;48.598;8.870;2023-02-26T06:31:59;-0.10;99.90
23335;DHT22;11839;48.598;8.870;2023-02-26T06:34:26;0.10;99.90
23335;DHT22;11839;48.598;8.870;2023-02-26T06:36:54;0.10;99.90
23335;DHT22;11839;48.598;8.870;2023-02-26T06:39:21;0.10;99.90
23335;DHT22;11839;48.598;8.870;2023-02-26T06:41:48;0.10;99.90
23335;DHT22;11839;48.598;8.870;2023-02-26T06:44:15;0.20;99.90
23335;DHT22;11839;48.598;8.870;2023-02-26T06:46:42;0.30;99.90
23335;DHT22;11839;48.598;8.870;2023-02-26T06:49:09;0.20;99.90
23335;DHT22;11839;48.598;8.870;2023-02-26T06:51:35;0.10;99.90
23335;DHT22;11839;48.598;8.870;2023-02-26T06:54:04;0.20;99.90
23335;DHT22;11839;48.598;8.870;2023-02-26T06:56:30;-0.20;99.90
23335;DHT22;11839;48.598;8.870;2023-02-26T06:58:57;-0.30;99.90
23335;DHT22;11839;48.598;8.870;2023-02-26T07:01:24;-0.30;99.90
23335;DHT22;11839;48.598;8.870;2023-02-26T07:03:51;0.10;99.90
23335;DHT22;11839;48.598;8.870;2023-02-26T07:06:18;0.10;99.90
23335;DHT22;11839;48.598;8.870;2023-02-26T07:08:45;0.30;99.90
23335;DHT22;11839;48.598;8.870;2023-02-26T07:11:13;0.30;99.90
23335;DHT22;11839;48.598;8.870;2023-02-26T07:13:40;0.30;99.90
23335;DHT22;11839;48.598;8.870;2023-02-26T07:16:07;0.30;99.90
23335;DHT22;11839;48.598;8.870;2023-02-26T07:18:34;0.30;99.90
23335;DHT22;11839;48.598;8.870;2023-02-26T07:21:02;0.30;99.90
23335;DHT22;11839;48.598;8.870;2023-02-26T07:23:30;0.40;99.90
23335;DHT22;11839;48.598;8.870;2023-02-26T07:25:56;0.40;99.90
23335;DHT22;11839;48.598;8.870;2023-02-26T07:28:25;0.50;99.90
23335;DHT22;11839;48.598;8.870;2023-02-26T07:30:53;0.30;99.90
23335;DHT22;11839;48.598;8.870;2023-02-26T07:33:20;0.00;99.90
23335;DHT22;11839;48.598;8.870;2023-02-26T07:35:47;0.20;99.90
23335;DHT22;11839;48.598;8.870;2023-02-26T07:38:13;0.20;99.90
23335;DHT22;11839;48.598;8.870;2023-02-26T07:40:40;0.30;99.90
23335;DHT22;11839;48.598;8.870;2023-02-26T07:43:07;0.40;99.90
23335;DHT22;11839;48.598;8.870;2023-02-26T07:45:35;0.50;99.90
23335;DHT22;11839;48.598;8.870;2023-02-26T07:48:02;0.40;99.90
23335;DHT22;11839;48.598;8.870;2023-02-26T07:50:29;0.40;99.90
23335;DHT22;11839;48.598;8.870;2023-02-26T07:52:56;0.20;99.90
23335;DHT22;11839;48.598;8.870;2023-02-26T07:55:23;0.10;99.90
23335;DHT22;11839;48.598;8.870;2023-02-26T07:57:49;0.00;99.90
23335;DHT22;11839;48.598;8.870;2023-02-26T08:00:17;0.20;99.90
23335;DHT22;11839;48.598;8.870;2023-02-26T08:02:45;0.20;99.90
23335;DHT22;11839;48.598;8.870;2023-02-26T08:05:12;0.00;99.90
23335;DHT22;11839;48.598;8.870;2023-02-26T08:07:39;0.10;99.90
23335;DHT22;11839;48.598;8.870;2023-02-26T08:10:07;0.00;99.90
23335;DHT22;11839;48.598;8.870;2023-02-26T08:12:34;0.00;99.90
23335;DHT22;11839;48.598;8.870;2023-02-26T08:15:02;0.00;99.90
23335;DHT22;11839;48.598;8.870;2023-02-26T08:17:29;-0.10;99.90
23335;DHT22;11839;48.598;8.870;2023-02-26T08:19:57;-0.10;99.90
23335;DHT22;11839;48.598;8.870;2023-02-26T08:22:24;-0.10;99.90
23335;DHT22;11839;48.598;8.870;2023-02-26T08:24:51;0.10;99.90
23335;DHT22;11839;48.598;8.870;2023-02-26T08:27:18;0.10;99.90
23335;DHT22;11839;48.598;8.870;2023-02-26T08:29:45;0.20;99.90
23335;DHT22;11839;48.598;8.870;2023-02-26T08:32:15;0.10;99.90
23335;DHT22;11839;48.598;8.870;2023-02-26T08:34:43;0.00;99.90
23335;DHT22;11839;48.598;8.870;2023-02-26T08:37:11;0.40;99.90
23335;DHT22;11839;48.598;8.870;2023-02-26T08:39:39;0.50;99.90
23335;DHT22;11839;48.598;8.870;2023-02-26T08:42:06;0.60;99.90
23335;DHT22;11839;48.598;8.870;2023-02-26T08:44:33;1.10;99.90
23335;DHT22;11839;48.598;8.870;2023-02-26T08:47:01;1.00;99.90
23335;DHT22;11839;48.598;8.870;2023-02-26T08:49:28;0.70;99.90
23335;DHT22;11839;48.598;8.870;2023-02-26T08:51:55;0.50;99.90
23335;DHT22;11839;48.598;8.870;2023-02-26T08:54:23;0.50;99.90
23335;DHT22;11839;48.598;8.870;2023-02-26T08:56:50;0.20;99.90
23335;DHT22;11839;48.598;8.870;2023-02-26T08:59:18;0.20;99.90
23335;DHT22;11839;48.598;8.870;2023-02-26T09:01:44;0.60;99.90
23335;DHT22;11839;48.598;8.870;2023-02-26T09:04:11;0.70;99.90
23335;DHT22;11839;48.598;8.870;2023-02-26T09:06:38;0.70;99.90
23335;DHT22;11839;48.598;8.870;2023-02-26T09:09:05;0.70;99.90
23335;DHT22;11839;48.598;8.870;2023-02-26T09:11:33;0.50;99.90
23335;DHT22;11839;48.598;8.870;2023-02-26T09:14:01;0.50;99.90
23335;DHT22;11839;48.598;8.870;2023-02-26T09:16:28;0.40;99.90
23335;DHT22;11839;48.598;8.870;2023-02-26T09:18:56;0.50;99.90
23335;DHT22;11839;48.598;8.870;2023-02-26T09:21:24;0.40;99.90
23335;DHT22;11839;48.598;8.870;2023-02-26T09:23:51;0.30;99.90
23335;DHT22;11839;48.598;8.870;2023-02-26T09:26:17;0.10;99.90
23335;DHT22;11839;48.598;8.870;2023-02-26T09:28:46;0.10;99.90
23335;DHT22;11839;48.598;8.870;2023-02-26T09:31:12;0.10;99.90
23335;DHT22;11839;48.598;8.870;2023-02-26T09:33:39;0.00;99.90
23335;DHT22;11839;48.598;8.870;2023-02-26T09:36:06;0.00;99.90
23335;DHT22;11839;48.598;8.870;2023-02-26T09:38:33;0.20;99.90
23335;DHT22;11839;48.598;8.870;2023-02-26T09:41:03;0.30;99.90
23335;DHT22;11839;48.598;8.870;2023-02-26T09:43:45;0.40;99.90
23335;DHT22;11839;48.598;8.870;2023-02-26T09:46:23;0.90;99.90
23335;DHT22;11839;48.598;8.870;2023-02-26T09:49:08;1.10;99.90
23335;DHT22;11839;48.598;8.870;2023-02-26T09:51:39;1.00;99.90
23335;DHT22;11839;48.598;8.870;2023-02-26T09:54:14;1.10;99.90
23335;DHT22;11839;48.598;8.870;2023-02-26T09:56:42;1.20;99.90
23335;DHT22;11839;48.598;8.870;2023-02-26T09:59:10;1.20;99.90
23335;DHT22;11839;48.598;8.870;2023-02-26T10:01:43;1.10;99.90
23335;DHT22;11839;48.598;8.870;2023-02-26T10:04:19;1.10;99.90
23335;DHT22;11839;48.598;8.870;2023-02-26T10:07:09;1.20;99.90
23335;DHT22;11839;48.598;8.870;2023-02-26T10:09:51;1.20;99.90
23335;DHT22;11839;48.598;8.870;2023-02-26T10:12:21;1.30;99.90
23335;DHT22;11839;48.598;8.870;2023-02-26T10:14:52;1.20;99.90
23335;DHT22;11839;48.598;8.870;2023-02-26T10:17:27;0.90;99.90
23335;DHT22;11839;48.598;8.870;2023-02-26T10:19:59;0.90;99.90
23335;DHT22;11839;48.598;8.870;2023-02-26T10:22:30;1.10;99.90
23335;DHT22;11839;48.598;8.870;2023-02-26T10:25:04;0.90;99.90
23335;DHT22;11839;48.598;8.870;2023-02-26T10:27:42;1.00;99.90
23335;DHT22;11839;48.598;8.870;2023-02-26T10:30:19;1.20;99.90
23335;DHT22;11839;48.598;8.870;2023-02-26T10:32:58;1.30;99.90
23335;DHT22;11839;48.598;8.870;2023-02-26T10:35:28;0.90;99.90
23335;DHT22;11839;48.598;8.870;2023-02-26T10:37:59;0.80;99.90
23335;DHT22;11839;48.598;8.870;2023-02-26T10:40:30;0.90;99.90
23335;DHT22;11839;48.598;8.870;2023-02-26T10:43:05;1.10;99.90
23335;DHT22;11839;48.598;8.870;2023-02-26T10:45:43;0.80;99.90
23335;DHT22;11839;48.598;8.870;2023-02-26T10:48:26;0.90;99.90
23335;DHT22;11839;48.598;8.870;2023-02-26T10:50:57;1.20;99.90
23335;DHT22;11839;48.598;8.870;2023-02-26T10:53:32;1.30;99.90
23335;DHT22;11839;48.598;8.870;2023-02-26T10:56:04;1.40;99.90
23335;DHT22;11839;48.598;8.870;2023-02-26T10:58:32;1.60;99.90
23335;DHT22;11839;48.598;8.870;2023-02-26T11:00:59;1.40;99.90
23335;DHT22;11839;48.598;8.870;2023-02-26T11:03:31;1.30;99.90
23335;DHT22;11839;48.598;8.870;2023-02-26T11:06:00;1.10;99.90
23335;DHT22;11839;48.598;8.870;2023-02-26T11:08:31;1.10;99.90
23335;DHT22;11839;48.598;8.870;2023-02-26T11:11:00;1.20;99.90
23335;DHT22;11839;48.598;8.870;2023-02-26T11:13:29;1.30;99.90
23335;DHT22;11839;48.598;8.870;2023-02-26T11:15:58;1.50;99.90
23335;DHT22;11839;48.598;8.870;2023-02-26T11:18:30;1.50;99.90
23335;DHT22;11839;48.598;8.870;2023-02-26T11:20:58;1.60;99.90
23335;DHT22;11839;48.598;8.870;2023-02-26T11:23:28;1.60;99.90
23335;DHT22;11839;48.598;8.870;2023-02-26T11:25:59;1.70;99.90
23335;DHT22;11839;48.598;8.870;2023-02-26T11:28:31;1.50;99.90
23335;DHT22;11839;48.598;8.870;2023-02-26T11:31:01;1.30;99.90
23335;DHT22;11839;48.598;8.870;2023-02-26T11:33:36;1.10;99.90
23335;DHT22;11839;48.598;8.870;2023-02-26T11:36:08;1.20;99.90
23335;DHT22;11839;48.598;8.870;2023-02-26T11:38:36;1.30;99.90
23335;DHT22;11839;48.598;8.870;2023-02-26T11:41:04;1.40;99.90
23335;DHT22;11839;48.598;8.870;2023-02-26T11:43:35;1.80;99.90
23335;DHT22;11839;48.598;8.870;2023-02-26T11:46:04;1.80;99.90
23335;DHT22;11839;48.598;8.870;2023-02-26T11:48:42;1.70;99.90
23335;DHT22;11839;48.598;8.870;2023-02-26T11:51:12;1.70;99.90
23335;DHT22;11839;48.598;8.870;2023-02-26T11:53:43;1.70;99.90
23335;DHT22;11839;48.598;8.870;2023-02-26T11:56:25;1.80;99.90
23335;DHT22;11839;48.598;8.870;2023-02-26T11:58:54;2.00;99.90
23335;DHT22;11839;48.598;8.870;2023-02-26T12:01:26;2.10;99.90
23335;DHT22;11839;48.598;8.870;2023-02-26T12:03:58;3.60;99.90
23335;DHT22;11839;48.598;8.870;2023-02-26T12:06:25;1.90;99.70
23335;DHT22;11839;48.598;8.870;2023-02-26T12:08:52;1.80;99.90
23335;DHT22;11839;48.598;8.870;2023-02-26T12:11:30;1.50;99.90
23335;DHT22;11839;48.598;8.870;2023-02-26T12:14:13;1.80;99.90
23335;DHT22;11839;48.598;8.870;2023-02-26T12:16:54;1.80;99.90
23335;DHT22;11839;48.598;8.870;2023-02-26T12:19:39;2.10;99.90
23335;DHT22;11839;48.598;8.870;2023-02-26T12:22:18;1.80;99.90
23335;DHT22;11839;48.598;8.870;2023-02-26T12:24:59;1.90;99.90
23335;DHT22;11839;48.598;8.870;2023-02-26T12:27:45;1.90;99.90
23335;DHT22;11839;48.598;8.870;2023-02-26T12:30:28;2.00;99.90
23335;DHT22;11839;48.598;8.870;2023-02-26T12:33:09;2.20;99.90
23335;DHT22;11839;48.598;8.870;2023-02-26T12:35:58;2.10;99.30
23335;DHT22;11839;48.598;8.870;2023-02-26T12:38:39;2.10;99.30
23335;DHT22;11839;48.598;8.870;2023-02-26T12:41:22;2.10;99.50
23335;DHT22;11839;48.598;8.870;2023-02-26T12:43:52;2.20;99.10
23335;DHT22;11839;48.598;8.870;2023-02-26T12:46:44;2.20;98.80
23335;DHT22;11839;48.598;8.870;2023-02-26T12:49:38;1.90;99.60
23335;DHT22;11839;48.598;8.870;2023-02-26T12:52:34;1.60;99.90
23335;DHT22;11839;48.598;8.870;2023-02-26T12:55:16;1.50;99.90
23335;DHT22;11839;48.598;8.870;2023-02-26T13:00:41;1.60;99.90
23335;DHT22;11839;48.598;8.870;2023-02-26T13:03:52;2.10;99.90
23335;DHT22;11839;48.598;8.870;2023-02-26T13:06:44;2.10;99.90
23335;DHT22;11839;48.598;8.870;2023-02-26T13:09:24;2.30;99.70
23335;DHT22;11839;48.598;8.870;2023-02-26T13:12:04;2.00;99.50
23335;DHT22;11839;48.598;8.870;2023-02-26T13:14:44;1.90;99.90
23335;DHT22;11839;48.598;8.870;2023-02-26T13:17:19;2.10;99.90
23335;DHT22;11839;48.598;8.870;2023-02-26T13:19:50;2.40;99.90
23335;DHT22;11839;48.598;8.870;2023-02-26T13:22:20;2.30;99.90
23335;DHT22;11839;48.598;8.870;2023-02-26T13:24:53;2.20;99.90
23335;DHT22;11839;48.598;8.870;2023-02-26T13:27:24;2.20;99.40
23335;DHT22;11839;48.598;8.870;2023-02-26T13:30:00;2.00;99.40
23335;DHT22;11839;48.598;8.870;2023-02-26T13:32:32;2.00;99.50
23335;DHT22;11839;48.598;8.870;2023-02-26T13:35:03;2.20;99.50
23335;DHT22;11839;48.598;8.870;2023-02-26T13:37:36;2.60;98.90
23335;DHT22;11839;48.598;8.870;2023-02-26T13:40:22;2.50;98.60
23335;DHT22;11839;48.598;8.870;2023-02-26T13:42:56;2.30;99.00
23335;DHT22;11839;48.598;8.870;2023-02-26T13:45:37;2.20;99.10
23335;DHT22;11839;48.598;8.870;2023-02-26T13:48:16;2.40;98.60
23335;DHT22;11839;48.598;8.870;2023-02-26T13:50:55;2.30;98.80
23335;DHT22;11839;48.598;8.870;2023-02-26T13:53:48;2.40;98.80
23335;DHT22;11839;48.598;8.870;2023-02-26T13:56:21;2.10;98.70
23335;DHT22;11839;48.598;8.870;2023-02-26T13:58:51;1.80;99.50
23335;DHT22;11839;48.598;8.870;2023-02-26T14:01:33;1.90;99.40
23335;DHT22;11839;48.598;8.870;2023-02-26T14:04:22;1.90;99.30
23335;DHT22;11839;48.598;8.870;2023-02-26T14:06:51;1.80;99.40
23335;DHT22;11839;48.598;8.870;2023-02-26T14:09:44;1.80;98.90
23335;DHT22;11839;48.598;8.870;2023-02-26T14:12:34;1.80;98.30
23335;DHT22;11839;48.598;8.870;2023-02-26T14:15:26;1.80;98.40
23335;DHT22;11839;48.598;8.870;2023-02-26T14:18:00;1.90;98.00
23335;DHT22;11839;48.598;8.870;2023-02-26T14:20:28;2.00;97.30
23335;DHT22;11839;48.598;8.870;2023-02-26T14:23:33;2.20;97.40
23335;DHT22;11839;48.598;8.870;2023-02-26T14:26:05;2.30;96.70
23335;DHT22;11839;48.598;8.870;2023-02-26T14:28:44;2.60;96.90
23335;DHT22;11839;48.598;8.870;2023-02-26T14:31:21;2.40;96.10
23335;DHT22;11839;48.598;8.870;2023-02-26T14:34:01;2.30;95.90
23335;DHT22;11839;48.598;8.870;2023-02-26T14:36:34;2.30;95.90
23335;DHT22;11839;48.598;8.870;2023-02-26T14:39:04;2.40;95.70
23335;DHT22;11839;48.598;8.870;2023-02-26T14:41:36;2.50;95.50
23335;DHT22;11839;48.598;8.870;2023-02-26T14:44:11;2.70;95.50
23335;DHT22;11839;48.598;8.870;2023-02-26T14:46:39;3.10;95.60
23335;DHT22;11839;48.598;8.870;2023-02-26T14:49:14;3.50;95.30
23335;DHT22;11839;48.598;8.870;2023-02-26T14:52:05;3.20;94.10
23335;DHT22;11839;48.598;8.870;2023-02-26T14:54:46;2.70;94.90
23335;DHT22;11839;48.598;8.870;2023-02-26T14:57:21;2.40;95.30
23335;DHT22;11839;48.598;8.870;2023-02-26T15:00:10;2.50;95.50
23335;DHT22;11839;48.598;8.870;2023-02-26T15:02:54;2.50;94.80
23335;DHT22;11839;48.598;8.870;2023-02-26T15:05:31;2.80;94.70
23335;DHT22;11839;48.598;8.870;2023-02-26T15:08:17;2.80;94.20
23335;DHT22;11839;48.598;8.870;2023-02-26T15:11:01;2.80;94.50
23335;DHT22;11839;48.598;8.870;2023-02-26T15:13:45;2.60;94.60
23335;DHT22;11839;48.598;8.870;2023-02-26T15:16:25;2.50;94.90
23335;DHT22;11839;48.598;8.870;2023-02-26T15:19:04;2.80;94.90
23335;DHT22;11839;48.598;8.870;2023-02-26T15:21:44;2.80;94.80
23335;DHT22;11839;48.598;8.870;2023-02-26T15:24:13;2.90;95.00
23335;DHT22;11839;48.598;8.870;2023-02-26T15:26:48;2.80;94.20
23335;DHT22;11839;48.598;8.870;2023-02-26T15:29:27;3.00;94.80
23335;DHT22;11839;48.598;8.870;2023-02-26T15:31:57;3.00;93.80
23335;DHT22;11839;48.598;8.870;2023-02-26T15:34:25;2.80;93.50
23335;DHT22;11839;48.598;8.870;2023-02-26T15:36:53;2.60;93.80
23335;DHT22;11839;48.598;8.870;2023-02-26T15:39:22;2.60;93.60
23335;DHT22;11839;48.598;8.870;2023-02-26T15:41:50;2.60;93.50
23335;DHT22;11839;48.598;8.870;2023-02-26T15:44:20;3.00;93.60
23335;DHT22;11839;48.598;8.870;2023-02-26T15:46:52;3.20;93.40
23335;DHT22;11839;48.598;8.870;2023-02-26T15:49:25;3.30;93.70
23335;DHT22;11839;48.598;8.870;2023-02-26T15:51:54;2.90;93.60
23335;DHT22;11839;48.598;8.870;2023-02-26T15:54:24;2.50;93.80
23335;DHT22;11839;48.598;8.870;2023-02-26T15:56:53;2.40;94.10
23335;DHT22;11839;48.598;8.870;2023-02-26T15:59:25;2.50;94.10
23335;DHT22;11839;48.598;8.870;2023-02-26T16:01:54;2.30;93.50
23335;DHT22;11839;48.598;8.870;2023-02-26T16:04:22;2.20;93.60
23335;DHT22;11839;48.598;8.870;2023-02-26T16:06:52;2.30;93.70
23335;DHT22;11839;48.598;8.870;2023-02-26T16:09:25;2.30;94.00
23335;DHT22;11839;48.598;8.870;2023-02-26T16:11:56;2.50;94.20
23335;DHT22;11839;48.598;8.870;2023-02-26T16:14:26;2.50;94.20
23335;DHT22;11839;48.598;8.870;2023-02-26T16:16:56;2.20;94.70